sensor_id;sensor_type;location;lat;lon;timestamp;temperature;humidity
32749;DHT22;19119;52.474;13.710;2023-03-13T00:02:12;5.70;99.90
32749;DHT22;19119;52.474;13.710;2023-03-13T00:04:37;5.70;99.90
32749;DHT22;19119;52.474;13.710;2023-03-13T00:07:03;5.70;99.90
32749;DHT22;19119;52.474;13.710;2023-03-13T00:09:29;5.70;99.90
32749;DHT22;19119;52.474;13.710;2023-03-13T00:11:55;5.70;99.90
32749;DHT22;19119;52.474;13.710;2023-03-13T00:14:21;5.70;99.90
32749;DHT22;19119;52.474;13.710;2023-03-13T00:16:46;5.70;99.90
32749;DHT22;19119;52.474;13.710;2023-03-13T00:19:12;5.80;99.90
32749;DHT22;19119;52.474;13.710;2023-03-13T00:21:37;5.80;99.90
32749;DHT22;19119;52.474;13.710;2023-03-13T00:24:05;5.90;99.90
32749;DHT22;19119;52.474;13.710;2023-03-13T00:26:31;5.90;99.90
32749;DHT22;19119;52.474;13.710;2023-03-13T00:28:57;5.90;99.90
32749;DHT22;19119;52.474;13.710;2023-03-13T00:31:27;5.90;99.90
32749;DHT22;19119;52.474;13.710;2023-03-13T00:33:57;5.90;99.90
32749;DHT22;19119;52.474;13.710;2023-03-13T00:36:25;6.00;99.90
32749;DHT22;19119;52.474;13.710;2023-03-13T00:38:54;6.00;99.90
32749;DHT22;19119;52.474;13.710;2023-03-13T00:41:22;6.00;99.90
32749;DHT22;19119;52.474;13.710;2023-03-13T00:43:49;6.10;99.90
32749;DHT22;19119;52.474;13.710;2023-03-13T00:46:17;6.10;99.90
32749;DHT22;19119;52.474;13.710;2023-03-13T00:48:43;6.10;99.90
32749;DHT22;19119;52.474;13.710;2023-03-13T00:51:09;6.10;99.90
32749;DHT22;19119;52.474;13.710;2023-03-13T00:53:35;6.20;99.90
32749;DHT22;19119;52.474;13.710;2023-03-13T00:56:06;6.20;99.90
32749;DHT22;19119;52.474;13.710;2023-03-13T00:58:34;6.20;99.90
32749;DHT22;19119;52.474;13.710;2023-03-13T01:01:20;6.30;99.90
32749;DHT22;19119;52.474;13.710;2023-03-13T01:03:55;6.30;99.90
32749;DHT22;19119;52.474;13.710;2023-03-13T01:06:23;6.40;99.90
32749;DHT22;19119;52.474;13.710;2023-03-13T01:08:52;6.30;99.90
32749;DHT22;19119;52.474;13.710;2023-03-13T01:11:23;6.40;99.90
32749;DHT22;19119;52.474;13.710;2023-03-13T01:13:55;6.40;99.90
32749;DHT22;19119;52.474;13.710;2023-03-13T01:16:22;6.40;99.90
32749;DHT22;19119;52.474;13.710;2023-03-13T01:18:51;6.30;99.90
32749;DHT22;19119;52.474;13.710;2023-03-13T01:21:18;6.40;99.90
32749;DHT22;19119;52.474;13.710;2023-03-13T01:23:44;6.40;99.90
32749;DHT22;19119;52.474;13.710;2023-03-13T01:26:10;6.40;99.90
32749;DHT22;19119;52.474;13.710;2023-03-13T01:28:35;6.40;99.90
32749;DHT22;19119;52.474;13.710;2023-03-13T01:31:10;6.50;99.90
32749;DHT22;19119;52.474;13.710;2023-03-13T01:33:35;6.50;99.90
32749;DHT22;19119;52.474;13.710;2023-03-13T01:36:01;6.50;99.90
32749;DHT22;19119;52.474;13.710;2023-03-13T01:38:27;6.50;99.90
32749;DHT22;19119;52.474;13.710;2023-03-13T01:40:53;6.50;99.90
32749;DHT22;19119;52.474;13.710;2023-03-13T01:43:29;6.50;99.90
32749;DHT22;19119;52.474;13.710;2023-03-13T01:48:27;6.60;99.90
32749;DHT22;19119;52.474;13.710;2023-03-13T01:50:56;6.60;99.90
32749;DHT22;19119;52.474;13.710;2023-03-13T01:53:23;6.60;99.90
32749;DHT22;19119;52.474;13.710;2023-03-13T01:55:50;6.60;99.90
32749;DHT22;19119;52.474;13.710;2023-03-13T01:58:15;6.60;99.90
32749;DHT22;19119;52.474;13.710;2023-03-13T02:00:42;6.60;99.90
32749;DHT22;19119;52.474;13.710;2023-03-13T02:03:11;6.70;99.90
32749;DHT22;19119;52.474;13.710;2023-03-13T02:05:40;6.60;99.90
32749;DHT22;19119;52.474;13.710;2023-03-13T02:08:12;6.70;99.90
32749;DHT22;19119;52.474;13.710;2023-03-13T02:11:02;6.70;99.90
32749;DHT22;19119;52.474;13.710;2023-03-13T02:13:29;6.70;99.90
32749;DHT22;19119;52.474;13.710;2023-03-13T02:15:55;6.70;99.90
32749;DHT22;19119;52.474;13.710;2023-03-13T02:18:21;6.70;99.90
32749;DHT22;19119;52.474;13.710;2023-03-13T02:20:47;6.70;99.90
32749;DHT22;19119;52.474;13.710;2023-03-13T02:23:25;6.60;99.90
32749;DHT22;19119;52.474;13.710;2023-03-13T02:25:52;6.70;99.90
32749;DHT22;19119;52.474;13.710;2023-03-13T02:28:26;6.70;99.90
32749;DHT22;19119;52.474;13.710;2023-03-13T02:30:57;6.70;99.90
32749;DHT22;19119;52.474;13.710;2023-03-13T02:33:30;6.70;99.90
32749;DHT22;19119;52.474;13.710;2023-03-13T02:35:59;6.70;99.90
32749;DHT22;19119;52.474;13.710;2023-03-13T02:38:28;6.70;99.90
32749;DHT22;19119;52.474;13.710;2023-03-13T02:41:00;6.70;99.90
32749;DHT22;19119;52.474;13.710;2023-03-13T02:43:31;6.70;99.90
32749;DHT22;19119;52.474;13.710;2023-03-13T02:46:06;6.70;99.90
32749;DHT22;19119;52.474;13.710;2023-03-13T02:48:39;6.70;99.90
32749;DHT22;19119;52.474;13.710;2023-03-13T02:51:10;6.70;99.90
32749;DHT22;19119;52.474;13.710;2023-03-13T02:53:37;6.70;99.90
32749;DHT22;19119;52.474;13.710;2023-03-13T02:56:03;6.70;99.90
32749;DHT22;19119;52.474;13.710;2023-03-13T02:58:37;6.80;99.90
32749;DHT22;19119;52.474;13.710;2023-03-13T03:01:06;6.80;99.90
32749;DHT22;19119;52.474;13.710;2023-03-13T03:03:33;6.80;99.90
32749;DHT22;19119;52.474;13.710;2023-03-13T03:06:00;6.80;99.90
32749;DHT22;19119;52.474;13.710;2023-03-13T03:08:26;6.80;99.90
32749;DHT22;19119;52.474;13.710;2023-03-13T03:10:51;6.80;99.90
32749;DHT22;19119;52.474;13.710;2023-03-13T03:13:17;6.80;99.90
32749;DHT22;19119;52.474;13.710;2023-03-13T03:15:43;6.80;99.90
32749;DHT22;19119;52.474;13.710;2023-03-13T03:18:08;6.80;99.90
32749;DHT22;19119;52.474;13.710;2023-03-13T03:20:33;6.80;99.90
32749;DHT22;19119;52.474;13.710;2023-03-13T03:23:02;6.90;99.90
32749;DHT22;19119;52.474;13.710;2023-03-13T03:25:27;6.90;99.90
32749;DHT22;19119;52.474;13.710;2023-03-13T03:27:53;6.80;99.90
32749;DHT22;19119;52.474;13.710;2023-03-13T03:30:19;6.90;99.90
32749;DHT22;19119;52.474;13.710;2023-03-13T03:32:44;6.90;99.90
32749;DHT22;19119;52.474;13.710;2023-03-13T03:35:10;6.90;99.90
32749;DHT22;19119;52.474;13.710;2023-03-13T03:37:36;6.90;99.90
32749;DHT22;19119;52.474;13.710;2023-03-13T03:40:01;7.00;99.90
32749;DHT22;19119;52.474;13.710;2023-03-13T03:42:29;7.00;99.90
32749;DHT22;19119;52.474;13.710;2023-03-13T03:44:55;6.90;99.90
32749;DHT22;19119;52.474;13.710;2023-03-13T03:47:21;7.00;99.90
32749;DHT22;19119;52.474;13.710;2023-03-13T03:49:46;7.00;99.90
32749;DHT22;19119;52.474;13.710;2023-03-13T03:52:12;7.00;99.90
32749;DHT22;19119;52.474;13.710;2023-03-13T03:54:37;7.10;99.90
32749;DHT22;19119;52.474;13.710;2023-03-13T03:57:03;7.10;99.90
32749;DHT22;19119;52.474;13.710;2023-03-13T03:59:28;7.10;99.90
32749;DHT22;19119;52.474;13.710;2023-03-13T04:01:54;7.10;99.90
32749;DHT22;19119;52.474;13.710;2023-03-13T04:04:34;7.10;99.90
32749;DHT22;19119;52.474;13.710;2023-03-13T04:06:59;7.10;99.90
32749;DHT22;19119;52.474;13.710;2023-03-13T04:09:25;7.10;99.90
32749;DHT22;19119;52.474;13.710;2023-03-13T04:11:50;7.10;99.90
32749;DHT22;19119;52.474;13.710;2023-03-13T04:14:16;7.10;99.90
32749;DHT22;19119;52.474;13.710;2023-03-13T04:16:42;7.10;99.90
32749;DHT22;19119;52.474;13.710;2023-03-13T04:19:07;7.10;99.90
32749;DHT22;19119;52.474;13.710;2023-03-13T04:21:33;7.10;99.90
32749;DHT22;19119;52.474;13.710;2023-03-13T04:23:58;7.10;99.90
32749;DHT22;19119;52.474;13.710;2023-03-13T04:26:24;7.20;99.90
32749;DHT22;19119;52.474;13.710;2023-03-13T04:28:50;7.20;99.90
32749;DHT22;19119;52.474;13.710;2023-03-13T04:31:15;7.20;99.90
32749;DHT22;19119;52.474;13.710;2023-03-13T04:33:41;7.30;99.90
32749;DHT22;19119;52.474;13.710;2023-03-13T04:36:06;7.20;99.90
32749;DHT22;19119;52.474;13.710;2023-03-13T04:38:32;7.20;99.90
32749;DHT22;19119;52.474;13.710;2023-03-13T04:40:57;7.30;99.90
32749;DHT22;19119;52.474;13.710;2023-03-13T04:43:23;7.30;99.90
32749;DHT22;19119;52.474;13.710;2023-03-13T04:45:51;7.30;99.90
32749;DHT22;19119;52.474;13.710;2023-03-13T04:48:19;7.30;99.90
32749;DHT22;19119;52.474;13.710;2023-03-13T04:50:45;7.30;99.90
32749;DHT22;19119;52.474;13.710;2023-03-13T04:53:11;7.30;99.90
32749;DHT22;19119;52.474;13.710;2023-03-13T04:55:36;7.40;99.90
32749;DHT22;19119;52.474;13.710;2023-03-13T04:58:02;7.40;99.90
32749;DHT22;19119;52.474;13.710;2023-03-13T05:00:28;7.40;99.90
32749;DHT22;19119;52.474;13.710;2023-03-13T05:02:53;7.40;99.90
32749;DHT22;19119;52.474;13.710;2023-03-13T05:05:18;7.40;99.90
32749;DHT22;19119;52.474;13.710;2023-03-13T05:07:44;7.40;99.90
32749;DHT22;19119;52.474;13.710;2023-03-13T05:10:10;7.40;99.90
32749;DHT22;19119;52.474;13.710;2023-03-13T05:12:35;7.40;99.90
32749;DHT22;19119;52.474;13.710;2023-03-13T05:15:01;7.40;99.90
32749;DHT22;19119;52.474;13.710;2023-03-13T05:17:26;7.40;99.90
32749;DHT22;19119;52.474;13.710;2023-03-13T05:19:52;7.40;99.90
32749;DHT22;19119;52.474;13.710;2023-03-13T05:22:17;7.40;99.90
32749;DHT22;19119;52.474;13.710;2023-03-13T05:24:43;7.40;99.90
32749;DHT22;19119;52.474;13.710;2023-03-13T05:27:08;7.40;99.90
32749;DHT22;19119;52.474;13.710;2023-03-13T05:29:34;7.40;99.90
32749;DHT22;19119;52.474;13.710;2023-03-13T05:31:59;7.50;99.90
32749;DHT22;19119;52.474;13.710;2023-03-13T05:34:25;7.50;99.90
32749;DHT22;19119;52.474;13.710;2023-03-13T05:36:50;7.50;99.90
32749;DHT22;19119;52.474;13.710;2023-03-13T05:39:19;7.40;99.90
32749;DHT22;19119;52.474;13.710;2023-03-13T05:41:44;7.50;99.90
32749;DHT22;19119;52.474;13.710;2023-03-13T05:44:10;7.50;99.90
32749;DHT22;19119;52.474;13.710;2023-03-13T05:46:35;7.50;99.90
32749;DHT22;19119;52.474;13.710;2023-03-13T05:49:01;7.50;99.90
32749;DHT22;19119;52.474;13.710;2023-03-13T05:51:26;7.50;99.90
32749;DHT22;19119;52.474;13.710;2023-03-13T05:53:52;7.50;99.90
32749;DHT22;19119;52.474;13.710;2023-03-13T05:56:18;7.60;99.90
32749;DHT22;19119;52.474;13.710;2023-03-13T05:58:43;7.50;99.90
32749;DHT22;19119;52.474;13.710;2023-03-13T06:01:10;7.60;99.90
32749;DHT22;19119;52.474;13.710;2023-03-13T06:03:36;7.70;99.90
32749;DHT22;19119;52.474;13.710;2023-03-13T06:06:02;7.60;99.90
32749;DHT22;19119;52.474;13.710;2023-03-13T06:08:28;7.70;99.90
32749;DHT22;19119;52.474;13.710;2023-03-13T06:10:54;7.60;99.90
32749;DHT22;19119;52.474;13.710;2023-03-13T06:13:19;7.70;99.90
32749;DHT22;19119;52.474;13.710;2023-03-13T06:15:52;7.60;99.90
32749;DHT22;19119;52.474;13.710;2023-03-13T06:18:18;7.70;99.90
32749;DHT22;19119;52.474;13.710;2023-03-13T06:20:43;7.70;99.90
32749;DHT22;19119;52.474;13.710;2023-03-13T06:23:09;7.70;99.90
32749;DHT22;19119;52.474;13.710;2023-03-13T06:25:35;7.70;99.90
32749;DHT22;19119;52.474;13.710;2023-03-13T06:28:00;7.70;99.90
32749;DHT22;19119;52.474;13.710;2023-03-13T06:30:26;7.80;99.90
32749;DHT22;19119;52.474;13.710;2023-03-13T06:32:51;7.70;99.90
32749;DHT22;19119;52.474;13.710;2023-03-13T06:35:17;7.70;99.90
32749;DHT22;19119;52.474;13.710;2023-03-13T06:37:42;7.70;99.90
32749;DHT22;19119;52.474;13.710;2023-03-13T06:40:09;7.70;99.90
32749;DHT22;19119;52.474;13.710;2023-03-13T06:42:35;7.70;99.90
32749;DHT22;19119;52.474;13.710;2023-03-13T06:45:00;7.80;99.90
32749;DHT22;19119;52.474;13.710;2023-03-13T06:47:30;7.70;99.90
32749;DHT22;19119;52.474;13.710;2023-03-13T06:49:56;7.70;99.90
32749;DHT22;19119;52.474;13.710;2023-03-13T06:52:21;7.80;99.90
32749;DHT22;19119;52.474;13.710;2023-03-13T06:54:47;7.80;99.90
32749;DHT22;19119;52.474;13.710;2023-03-13T06:57:12;7.80;99.90
32749;DHT22;19119;52.474;13.710;2023-03-13T06:59:38;7.80;99.90
32749;DHT22;19119;52.474;13.710;2023-03-13T07:02:03;7.90;99.90
32749;DHT22;19119;52.474;13.710;2023-03-13T07:04:30;7.90;99.90
32749;DHT22;19119;52.474;13.710;2023-03-13T07:06:55;7.90;99.90
32749;DHT22;19119;52.474;13.710;2023-03-13T07:09:21;7.90;99.90
32749;DHT22;19119;52.474;13.710;2023-03-13T07:11:46;8.00;99.90
32749;DHT22;19119;52.474;13.710;2023-03-13T07:14:12;8.00;99.90
32749;DHT22;19119;52.474;13.710;2023-03-13T07:16:38;8.00;99.90
32749;DHT22;19119;52.474;13.710;2023-03-13T07:19:03;8.10;99.90
32749;DHT22;19119;52.474;13.710;2023-03-13T07:21:29;8.10;99.90
32749;DHT22;19119;52.474;13.710;2023-03-13T07:23:54;8.20;99.90
32749;DHT22;19119;52.474;13.710;2023-03-13T07:26:20;8.10;99.90
32749;DHT22;19119;52.474;13.710;2023-03-13T07:28:45;8.10;99.90
32749;DHT22;19119;52.474;13.710;2023-03-13T07:31:16;8.10;99.90
32749;DHT22;19119;52.474;13.710;2023-03-13T07:33:43;8.10;99.90
32749;DHT22;19119;52.474;13.710;2023-03-13T07:36:10;8.20;99.90
32749;DHT22;19119;52.474;13.710;2023-03-13T07:38:36;8.20;99.90
32749;DHT22;19119;52.474;13.710;2023-03-13T07:41:02;8.20;99.90
32749;DHT22;19119;52.474;13.710;2023-03-13T07:43:28;8.20;99.90
32749;DHT22;19119;52.474;13.710;2023-03-13T07:48:36;8.20;99.90
32749;DHT22;19119;52.474;13.710;2023-03-13T07:51:05;8.20;99.90
32749;DHT22;19119;52.474;13.710;2023-03-13T07:53:31;8.20;99.90
32749;DHT22;19119;52.474;13.710;2023-03-13T07:56:02;8.20;99.90
32749;DHT22;19119;52.474;13.710;2023-03-13T07:58:31;8.30;99.90
32749;DHT22;19119;52.474;13.710;2023-03-13T08:00:58;8.40;99.90
32749;DHT22;19119;52.474;13.710;2023-03-13T08:03:24;8.20;99.90
32749;DHT22;19119;52.474;13.710;2023-03-13T08:06:23;8.30;99.90
32749;DHT22;19119;52.474;13.710;2023-03-13T08:08:50;8.40;99.90
32749;DHT22;19119;52.474;13.710;2023-03-13T08:11:18;8.30;99.90
32749;DHT22;19119;52.474;13.710;2023-03-13T08:13:47;8.40;99.90
32749;DHT22;19119;52.474;13.710;2023-03-13T08:16:32;8.40;99.90
32749;DHT22;19119;52.474;13.710;2023-03-13T08:18:59;8.40;99.90
32749;DHT22;19119;52.474;13.710;2023-03-13T08:21:27;8.40;99.90
32749;DHT22;19119;52.474;13.710;2023-03-13T08:23:54;8.40;99.90
32749;DHT22;19119;52.474;13.710;2023-03-13T08:26:22;8.40;99.90
32749;DHT22;19119;52.474;13.710;2023-03-13T08:28:52;8.50;99.90
32749;DHT22;19119;52.474;13.710;2023-03-13T08:33:46;8.50;99.90
32749;DHT22;19119;52.474;13.710;2023-03-13T08:36:26;8.50;99.90
32749;DHT22;19119;52.474;13.710;2023-03-13T08:38:54;8.50;99.90
32749;DHT22;19119;52.474;13.710;2023-03-13T08:41:23;8.50;99.90
32749;DHT22;19119;52.474;13.710;2023-03-13T08:43:51;8.50;99.90
32749;DHT22;19119;52.474;13.710;2023-03-13T08:46:17;8.60;99.90
32749;DHT22;19119;52.474;13.710;2023-03-13T08:48:43;8.70;99.90
32749;DHT22;19119;52.474;13.710;2023-03-13T08:51:11;8.70;99.90
32749;DHT22;19119;52.474;13.710;2023-03-13T08:53:38;8.70;99.90
32749;DHT22;19119;52.474;13.710;2023-03-13T08:56:05;8.70;99.90
32749;DHT22;19119;52.474;13.710;2023-03-13T08:58:31;8.70;99.90
32749;DHT22;19119;52.474;13.710;2023-03-13T09:01:13;8.80;99.90
32749;DHT22;19119;52.474;13.710;2023-03-13T09:03:39;8.80;99.90
32749;DHT22;19119;52.474;13.710;2023-03-13T09:06:05;8.90;99.90
32749;DHT22;19119;52.474;13.710;2023-03-13T09:08:32;8.90;99.90
32749;DHT22;19119;52.474;13.710;2023-03-13T09:10:59;8.90;99.90
32749;DHT22;19119;52.474;13.710;2023-03-13T09:13:26;9.00;99.90
32749;DHT22;19119;52.474;13.710;2023-03-13T09:15:58;9.00;99.90
32749;DHT22;19119;52.474;13.710;2023-03-13T09:18:25;9.10;99.90
32749;DHT22;19119;52.474;13.710;2023-03-13T09:20:50;9.10;99.90
32749;DHT22;19119;52.474;13.710;2023-03-13T09:23:16;9.10;99.90
32749;DHT22;19119;52.474;13.710;2023-03-13T09:25:42;9.10;99.90
32749;DHT22;19119;52.474;13.710;2023-03-13T09:28:07;9.10;99.90
32749;DHT22;19119;52.474;13.710;2023-03-13T09:30:33;9.10;99.90
32749;DHT22;19119;52.474;13.710;2023-03-13T09:32:59;9.20;99.90
32749;DHT22;19119;52.474;13.710;2023-03-13T09:35:24;9.20;99.90
32749;DHT22;19119;52.474;13.710;2023-03-13T09:37:50;9.20;99.90
32749;DHT22;19119;52.474;13.710;2023-03-13T09:40:16;9.30;99.90
32749;DHT22;19119;52.474;13.710;2023-03-13T09:42:49;9.30;99.90
32749;DHT22;19119;52.474;13.710;2023-03-13T09:45:28;9.30;99.90
32749;DHT22;19119;52.474;13.710;2023-03-13T09:48:04;9.30;99.90
32749;DHT22;19119;52.474;13.710;2023-03-13T09:50:35;9.30;99.90
32749;DHT22;19119;52.474;13.710;2023-03-13T09:53:13;9.40;99.90
32749;DHT22;19119;52.474;13.710;2023-03-13T09:55:38;9.40;99.90
32749;DHT22;19119;52.474;13.710;2023-03-13T10:00:37;9.30;99.90
32749;DHT22;19119;52.474;13.710;2023-03-13T10:05:35;9.40;99.90
32749;DHT22;19119;52.474;13.710;2023-03-13T10:10:42;9.40;99.90
32749;DHT22;19119;52.474;13.710;2023-03-13T10:13:11;9.50;99.90
32749;DHT22;19119;52.474;13.710;2023-03-13T10:15:47;9.50;99.90
32749;DHT22;19119;52.474;13.710;2023-03-13T10:18:18;9.50;99.90
32749;DHT22;19119;52.474;13.710;2023-03-13T10:20:47;9.60;99.90
32749;DHT22;19119;52.474;13.710;2023-03-13T10:23:14;9.60;99.90
32749;DHT22;19119;52.474;13.710;2023-03-13T10:25:40;9.70;99.90
32749;DHT22;19119;52.474;13.710;2023-03-13T10:28:10;9.60;99.90
32749;DHT22;19119;52.474;13.710;2023-03-13T10:30:36;9.70;99.90
32749;DHT22;19119;52.474;13.710;2023-03-13T10:35:34;9.70;99.90
32749;DHT22;19119;52.474;13.710;2023-03-13T10:38:19;9.80;99.90
32749;DHT22;19119;52.474;13.710;2023-03-13T10:41:04;9.90;99.90
32749;DHT22;19119;52.474;13.710;2023-03-13T10:43:32;10.00;99.90
32749;DHT22;19119;52.474;13.710;2023-03-13T10:45:58;10.10;99.90
32749;DHT22;19119;52.474;13.710;2023-03-13T10:48:24;10.20;99.90
32749;DHT22;19119;52.474;13.710;2023-03-13T10:50:51;10.30;99.90
32749;DHT22;19119;52.474;13.710;2023-03-13T10:55:45;10.40;99.90
32749;DHT22;19119;52.474;13.710;2023-03-13T10:58:19;10.50;99.90
32749;DHT22;19119;52.474;13.710;2023-03-13T11:00:46;10.50;99.90
32749;DHT22;19119;52.474;13.710;2023-03-13T11:03:18;10.60;99.90
32749;DHT22;19119;52.474;13.710;2023-03-13T11:05:54;10.70;99.90
32749;DHT22;19119;52.474;13.710;2023-03-13T11:08:21;10.80;99.90
32749;DHT22;19119;52.474;13.710;2023-03-13T11:11:14;10.90;99.90
32749;DHT22;19119;52.474;13.710;2023-03-13T11:13:38;11.10;99.90
32749;DHT22;19119;52.474;13.710;2023-03-13T11:16:08;11.20;99.90
32749;DHT22;19119;52.474;13.710;2023-03-13T11:21:00;11.40;99.90
32749;DHT22;19119;52.474;13.710;2023-03-13T11:23:44;11.40;99.90
32749;DHT22;19119;52.474;13.710;2023-03-13T11:28:49;11.50;99.90
32749;DHT22;19119;52.474;13.710;2023-03-13T11:31:18;11.50;99.90
32749;DHT22;19119;52.474;13.710;2023-03-13T11:39:07;11.80;99.90
32749;DHT22;19119;52.474;13.710;2023-03-13T11:54:38;12.30;99.90
32749;DHT22;19119;52.474;13.710;2023-03-13T11:57:13;12.50;99.90
32749;DHT22;19119;52.474;13.710;2023-03-13T12:02:27;12.80;99.90
32749;DHT22;19119;52.474;13.710;2023-03-13T12:05:16;12.80;99.90
32749;DHT22;19119;52.474;13.710;2023-03-13T12:10:25;12.80;99.90
32749;DHT22;19119;52.474;13.710;2023-03-13T12:13:00;12.80;99.90
32749;DHT22;19119;52.474;13.710;2023-03-13T12:15:30;12.70;99.90
32749;DHT22;19119;52.474;13.710;2023-03-13T12:18:14;12.80;99.90
32749;DHT22;19119;52.474;13.710;2023-03-13T12:21:03;12.80;99.90
32749;DHT22;19119;52.474;13.710;2023-03-13T12:26:15;13.20;99.90
32749;DHT22;19119;52.474;13.710;2023-03-13T12:29:17;13.40;99.90
32749;DHT22;19119;52.474;13.710;2023-03-13T12:31:53;13.60;99.90
32749;DHT22;19119;52.474;13.710;2023-03-13T12:37:52;13.70;99.90
32749;DHT22;19119;52.474;13.710;2023-03-13T12:40:37;13.70;99.90
32749;DHT22;19119;52.474;13.710;2023-03-13T12:43:09;13.90;99.90
32749;DHT22;19119;52.474;13.710;2023-03-13T12:45:44;14.20;99.90
32749;DHT22;19119;52.474;13.710;2023-03-13T12:48:36;14.30;99.90
32749;DHT22;19119;52.474;13.710;2023-03-13T12:59:38;15.60;99.90
32749;DHT22;19119;52.474;13.710;2023-03-13T13:02:25;15.60;99.90
32749;DHT22;19119;52.474;13.710;2023-03-13T13:04:52;16.40;99.90
32749;DHT22;19119;52.474;13.710;2023-03-13T13:07:31;16.70;99.90
32749;DHT22;19119;52.474;13.710;2023-03-13T13:12:36;16.60;99.90
32749;DHT22;19119;52.474;13.710;2023-03-13T13:15:34;16.20;99.90
32749;DHT22;19119;52.474;13.710;2023-03-13T13:18:23;16.20;99.90
32749;DHT22;19119;52.474;13.710;2023-03-13T13:23:45;17.60;99.90
32749;DHT22;19119;52.474;13.710;2023-03-13T13:37:02;16.20;99.90
32749;DHT22;19119;52.474;13.710;2023-03-13T13:39:31;16.00;99.90
32749;DHT22;19119;52.474;13.710;2023-03-13T13:41:59;15.50;99.90
32749;DHT22;19119;52.474;13.710;2023-03-13T13:44:26;16.30;99.90
32749;DHT22;19119;52.474;13.710;2023-03-13T13:46:54;16.40;99.90
32749;DHT22;19119;52.474;13.710;2023-03-13T13:49:53;16.70;99.90
32749;DHT22;19119;52.474;13.710;2023-03-13T13:52:32;17.00;99.90
32749;DHT22;19119;52.474;13.710;2023-03-13T13:54:58;16.50;99.90
32749;DHT22;19119;52.474;13.710;2023-03-13T13:57:26;16.50;99.90
32749;DHT22;19119;52.474;13.710;2023-03-13T14:00:02;16.20;99.90
32749;DHT22;19119;52.474;13.710;2023-03-13T14:02:34;16.00;99.90
32749;DHT22;19119;52.474;13.710;2023-03-13T14:05:04;15.80;99.90
32749;DHT22;19119;52.474;13.710;2023-03-13T14:07:49;15.70;99.90
32749;DHT22;19119;52.474;13.710;2023-03-13T14:12:50;15.60;99.90
32749;DHT22;19119;52.474;13.710;2023-03-13T14:17:52;15.60;99.90
32749;DHT22;19119;52.474;13.710;2023-03-13T14:20:29;15.70;99.90
32749;DHT22;19119;52.474;13.710;2023-03-13T14:22:57;15.80;99.90
32749;DHT22;19119;52.474;13.710;2023-03-13T14:25:25;15.70;99.90
32749;DHT22;19119;52.474;13.710;2023-03-13T14:27:53;15.70;99.90
32749;DHT22;19119;52.474;13.710;2023-03-13T14:30:21;16.90;99.90
32749;DHT22;19119;52.474;13.710;2023-03-13T14:32:47;17.40;99.90
32749;DHT22;19119;52.474;13.710;2023-03-13T14:35:18;16.60;99.90
32749;DHT22;19119;52.474;13.710;2023-03-13T14:37:47;16.60;99.90
32749;DHT22;19119;52.474;13.710;2023-03-13T14:40:25;16.40;99.90
32749;DHT22;19119;52.474;13.710;2023-03-13T14:42:54;16.30;99.90
32749;DHT22;19119;52.474;13.710;2023-03-13T14:45:29;16.90;99.90
32749;DHT22;19119;52.474;13.710;2023-03-13T14:48:13;16.40;99.90
32749;DHT22;19119;52.474;13.710;2023-03-13T14:50:40;16.70;99.90
32749;DHT22;19119;52.474;13.710;2023-03-13T14:53:17;16.50;99.90
32749;DHT22;19119;52.474;13.710;2023-03-13T14:55:43;16.40;99.90
32749;DHT22;19119;52.474;13.710;2023-03-13T14:58:29;16.00;99.90
32749;DHT22;19119;52.474;13.710;2023-03-13T15:00:55;15.90;99.90
32749;DHT22;19119;52.474;13.710;2023-03-13T15:03:34;15.80;99.90
32749;DHT22;19119;52.474;13.710;2023-03-13T15:08:43;15.60;99.90
32749;DHT22;19119;52.474;13.710;2023-03-13T15:11:28;15.60;99.90
32749;DHT22;19119;52.474;13.710;2023-03-13T15:13:55;15.70;99.90
32749;DHT22;19119;52.474;13.710;2023-03-13T15:16:22;15.70;99.90
32749;DHT22;19119;52.474;13.710;2023-03-13T15:18:48;15.70;99.90
32749;DHT22;19119;52.474;13.710;2023-03-13T15:23:53;15.50;99.90
32749;DHT22;19119;52.474;13.710;2023-03-13T15:26:20;15.50;99.90
32749;DHT22;19119;52.474;13.710;2023-03-13T15:28:46;15.40;99.90
32749;DHT22;19119;52.474;13.710;2023-03-13T15:31:12;15.40;99.90
32749;DHT22;19119;52.474;13.710;2023-03-13T15:33:40;15.40;99.90
32749;DHT22;19119;52.474;13.710;2023-03-13T15:36:06;15.50;99.90
32749;DHT22;19119;52.474;13.710;2023-03-13T15:38:32;15.40;99.90
32749;DHT22;19119;52.474;13.710;2023-03-13T15:40:58;15.40;99.90
32749;DHT22;19119;52.474;13.710;2023-03-13T15:43:23;15.50;99.90
32749;DHT22;19119;52.474;13.710;2023-03-13T15:45:50;15.40;99.90
32749;DHT22;19119;52.474;13.710;2023-03-13T15:48:21;15.40;99.90
32749;DHT22;19119;52.474;13.710;2023-03-13T15:50:52;15.20;99.90
32749;DHT22;19119;52.474;13.710;2023-03-13T15:53:24;15.30;99.90
32749;DHT22;19119;52.474;13.710;2023-03-13T15:55:51;15.20;99.90
32749;DHT22;19119;52.474;13.710;2023-03-13T15:58:18;15.10;99.90
32749;DHT22;19119;52.474;13.710;2023-03-13T16:00:44;15.10;99.90
32749;DHT22;19119;52.474;13.710;2023-03-13T16:03:30;15.10;99.90
32749;DHT22;19119;52.474;13.710;2023-03-13T16:05:56;15.00;99.90
32749;DHT22;19119;52.474;13.710;2023-03-13T16:08:25;15.00;99.90
32749;DHT22;19119;52.474;13.710;2023-03-13T16:10:51;15.00;99.90
32749;DHT22;19119;52.474;13.710;2023-03-13T16:13:17;14.90;99.90
32749;DHT22;19119;52.474;13.710;2023-03-13T16:15:43;15.00;99.90
32749;DHT22;19119;52.474;13.710;2023-03-13T16:18:19;14.90;99.90
32749;DHT22;19119;52.474;13.710;2023-03-13T16:20:46;14.90;99.90
32749;DHT22;19119;52.474;13.710;2023-03-13T16:23:11;14.90;99.90
32749;DHT22;19119;52.474;13.710;2023-03-13T16:25:38;14.90;99.90
32749;DHT22;19119;52.474;13.710;2023-03-13T16:28:04;14.80;99.90
32749;DHT22;19119;52.474;13.710;2023-03-13T16:30:32;14.90;99.90
32749;DHT22;19119;52.474;13.710;2023-03-13T16:32:58;14.90;99.90
32749;DHT22;19119;52.474;13.710;2023-03-13T16:35:26;14.90;99.90
32749;DHT22;19119;52.474;13.710;2023-03-13T16:37:54;14.80;99.90
32749;DHT22;19119;52.474;13.710;2023-03-13T16:40:22;14.80;99.90
32749;DHT22;19119;52.474;13.710;2023-03-13T16:42:48;14.70;99.90
32749;DHT22;19119;52.474;13.710;2023-03-13T16:45:14;14.70;99.90
32749;DHT22;19119;52.474;13.710;2023-03-13T16:47:41;14.70;99.90
32749;DHT22;19119;52.474;13.710;2023-03-13T16:50:32;14.70;99.90
32749;DHT22;19119;52.474;13.710;2023-03-13T16:52:58;14.60;99.90
32749;DHT22;19119;52.474;13.710;2023-03-13T16:55:25;14.60;99.90
32749;DHT22;19119;52.474;13.710;2023-03-13T16:57:56;14.60;99.90
32749;DHT22;19119;52.474;13.710;2023-03-13T17:00:23;14.60;99.90
32749;DHT22;19119;52.474;13.710;2023-03-13T17:02:49;14.60;99.90
32749;DHT22;19119;52.474;13.710;2023-03-13T17:05:15;14.60;99.90
32749;DHT22;19119;52.474;13.710;2023-03-13T17:07:43;14.50;99.90